createdAt,value
2018-06-11T00:00:06.182Z,0
2018-06-11T00:01:06.168Z,0
2018-06-11T00:02:05.924Z,0
2018-06-11T00:03:06.159Z,0
2018-06-11T00:04:06.167Z,0
2018-06-11T00:05:06.195Z,0
2018-06-11T00:06:05.644Z,0
2018-06-11T00:07:05.645Z,0
2018-06-11T00:08:06.181Z,0
2018-06-11T00:09:06.193Z,0
2018-06-11T00:10:05.925Z,0
2018-06-11T00:11:06.195Z,0
2018-06-11T00:12:06.217Z,0
2018-06-11T00:13:07.045Z,0
2018-06-11T00:14:06.199Z,0
2018-06-11T00:15:06.206Z,0
2018-06-11T00:16:06.189Z,0
2018-06-11T00:17:05.931Z,0
2018-06-11T00:18:05.950Z,0
2018-06-11T00:19:05.958Z,0
2018-06-11T00:20:05.940Z,0
2018-06-11T00:21:05.934Z,0
2018-06-11T00:22:06.186Z,0
2018-06-11T00:23:06.661Z,0
2018-06-11T00:24:05.683Z,0
2018-06-11T00:25:05.986Z,0
2018-06-11T00:26:06.208Z,0
2018-06-11T00:27:06.504Z,0
2018-06-11T00:28:05.954Z,0
2018-06-11T00:29:06.233Z,0
2018-06-11T00:30:05.976Z,0
2018-06-11T00:31:06.476Z,0
2018-06-11T00:32:05.698Z,0
2018-06-11T00:33:06.214Z,0
2018-06-11T00:34:05.953Z,0
2018-06-11T00:35:05.997Z,0
2018-06-11T00:36:05.977Z,0
2018-06-11T00:37:06.209Z,0
2018-06-11T00:38:05.699Z,0
2018-06-11T00:39:06.280Z,0
2018-06-11T00:40:05.996Z,0
2018-06-11T00:41:06.244Z,0
2018-06-11T00:42:06.527Z,0
2018-06-11T00:43:06.276Z,0
2018-06-11T00:44:06.255Z,0
2018-06-11T00:45:05.982Z,0
2018-06-11T00:46:05.991Z,0
2018-06-11T00:47:06.502Z,0
2018-06-11T00:48:06.006Z,0
2018-06-11T00:49:06.517Z,0
2018-06-11T00:50:06.240Z,0
2018-06-11T00:51:06.296Z,0
2018-06-11T00:52:06.006Z,0
2018-06-11T00:53:06.267Z,0
2018-06-11T00:54:06.284Z,0
2018-06-11T00:55:06.268Z,0
2018-06-11T00:56:06.331Z,0
2018-06-11T00:57:06.305Z,0
2018-06-11T00:58:08.373Z,0
2018-06-11T00:59:05.760Z,0
2018-06-11T01:00:06.015Z,0
2018-06-11T01:01:06.548Z,0
2018-06-11T01:02:05.760Z,0
2018-06-11T01:03:06.033Z,0
2018-06-11T01:04:06.310Z,0
2018-06-11T01:05:06.022Z,0
2018-06-11T01:06:05.773Z,0
2018-06-11T01:07:05.767Z,0
2018-06-11T01:08:07.098Z,0
2018-06-11T01:09:06.334Z,0
2018-06-11T01:10:06.557Z,0
2018-06-11T01:11:06.312Z,0
2018-06-11T01:12:06.313Z,0
2018-06-11T01:13:06.052Z,0
2018-06-11T01:14:06.060Z,0
2018-06-11T01:15:06.584Z,0
2018-06-11T01:16:06.037Z,0
2018-06-11T01:17:06.302Z,0
2018-06-11T01:18:06.347Z,0
2018-06-11T01:19:06.314Z,0
2018-06-11T01:20:06.054Z,0
2018-06-11T01:21:06.084Z,0
2018-06-11T01:22:06.069Z,0
2018-06-11T01:23:06.334Z,0
2018-06-11T01:24:06.582Z,0
2018-06-11T01:25:06.085Z,0
2018-06-11T01:26:06.580Z,0
2018-06-11T01:27:06.058Z,0
2018-06-11T01:28:06.830Z,0
2018-06-11T01:29:06.336Z,0
2018-06-11T01:30:06.077Z,0
2018-06-11T01:31:06.053Z,0
2018-06-11T01:32:06.082Z,0
2018-06-11T01:33:06.076Z,0
2018-06-11T01:34:06.358Z,0
2018-06-11T01:35:06.350Z,0
2018-06-11T01:36:06.330Z,0
2018-06-11T01:37:06.094Z,0
2018-06-11T01:38:06.083Z,0
2018-06-11T01:39:06.615Z,0
2018-06-11T01:40:06.140Z,0
2018-06-11T01:41:06.085Z,0
2018-06-11T01:42:06.345Z,0
2018-06-11T01:43:06.360Z,0
2018-06-11T01:44:06.385Z,0
2018-06-11T01:45:06.106Z,0
2018-06-11T01:46:06.151Z,0
2018-06-11T01:47:06.294Z,0
2018-06-11T01:48:05.908Z,0
2018-06-11T01:49:06.389Z,0
2018-06-11T01:50:05.841Z,0
2018-06-11T01:51:06.109Z,0
2018-06-11T01:52:06.358Z,0
2018-06-11T01:53:05.854Z,0
2018-06-11T01:54:06.367Z,0
2018-06-11T01:55:06.385Z,0
2018-06-11T01:56:06.173Z,0
2018-06-11T01:57:05.845Z,0
2018-06-11T01:58:06.125Z,0
2018-06-11T01:59:09.581Z,0
2018-06-11T02:00:06.149Z,0
2018-06-11T02:01:06.440Z,0
2018-06-11T02:02:06.434Z,0
2018-06-11T02:03:05.868Z,0
2018-06-11T02:04:06.139Z,0
2018-06-11T02:05:06.434Z,0
2018-06-11T02:06:06.380Z,0
2018-06-11T02:07:06.128Z,0
2018-06-11T02:08:06.155Z,0
2018-06-11T02:09:05.603Z,0
2018-06-11T02:10:06.449Z,0
2018-06-11T02:11:06.163Z,0
2018-06-11T02:12:06.418Z,0
2018-06-11T02:13:06.659Z,0
2018-06-11T02:14:06.170Z,0
2018-06-11T02:15:06.162Z,0
2018-06-11T02:16:06.438Z,0
2018-06-11T02:17:06.141Z,0
2018-06-11T02:18:06.145Z,0
2018-06-11T02:19:05.916Z,0
2018-06-11T02:20:06.417Z,0
2018-06-11T02:21:06.164Z,0
2018-06-11T02:22:06.517Z,0
2018-06-11T02:23:06.172Z,0
2018-06-11T02:24:06.422Z,0
2018-06-11T02:25:05.914Z,0
2018-06-11T02:26:05.898Z,0
2018-06-11T02:27:05.903Z,0
2018-06-11T02:28:06.428Z,0
2018-06-11T02:29:06.506Z,0
2018-06-11T02:30:06.183Z,0
2018-06-11T02:31:06.464Z,0
2018-06-11T02:32:05.933Z,0
2018-06-11T02:33:06.179Z,0
2018-06-11T02:34:06.201Z,0
2018-06-11T02:35:06.452Z,0
2018-06-11T02:36:05.682Z,0
2018-06-11T02:37:05.926Z,0
2018-06-11T02:38:06.731Z,0
2018-06-11T02:39:06.459Z,0
2018-06-11T02:40:06.259Z,0
2018-06-11T02:41:06.451Z,0
2018-06-11T02:42:06.513Z,0
2018-06-11T02:43:06.467Z,0
2018-06-11T02:44:06.251Z,0
2018-06-11T02:45:06.483Z,0
2018-06-11T02:46:05.946Z,0
2018-06-11T02:47:06.239Z,0
2018-06-11T02:48:06.234Z,0
2018-06-11T02:49:06.515Z,0
2018-06-11T02:50:06.745Z,0
2018-06-11T02:51:06.466Z,0
2018-06-11T02:52:05.974Z,0
2018-06-11T02:53:06.256Z,0
2018-06-11T02:54:06.238Z,0
2018-06-11T02:55:06.529Z,0
2018-06-11T02:56:06.242Z,0
2018-06-11T02:57:06.506Z,0
2018-06-11T02:58:06.542Z,0
2018-06-11T02:59:07.314Z,0
2018-06-11T03:00:06.512Z,0
2018-06-11T03:01:06.229Z,0
2018-06-11T03:02:05.993Z,0
2018-06-11T03:03:06.521Z,0
2018-06-11T03:04:06.251Z,0
2018-06-11T03:05:06.517Z,0
2018-06-11T03:06:06.266Z,0
2018-06-11T03:07:06.520Z,0
2018-06-11T03:08:06.268Z,0
2018-06-11T03:09:06.307Z,0
2018-06-11T03:10:05.727Z,0
2018-06-11T03:11:06.249Z,0
2018-06-11T03:12:06.257Z,0
2018-06-11T03:13:06.254Z,5
2018-06-11T03:14:06.780Z,5
2018-06-11T03:15:06.257Z,5
2018-06-11T03:16:06.527Z,5
2018-06-11T03:17:06.282Z,5
2018-06-11T03:18:06.527Z,5
2018-06-11T03:19:06.796Z,5
2018-06-11T03:20:06.790Z,5
2018-06-11T03:21:06.525Z,5
2018-06-11T03:22:06.042Z,10
2018-06-11T03:23:06.270Z,10
2018-06-11T03:24:06.807Z,10
2018-06-11T03:25:06.033Z,10
2018-06-11T03:26:06.558Z,10
2018-06-11T03:27:06.574Z,15
2018-06-11T03:28:06.555Z,15
2018-06-11T03:29:06.559Z,15
2018-06-11T03:30:06.295Z,15
2018-06-11T03:31:06.814Z,20
2018-06-11T03:32:06.028Z,20
2018-06-11T03:33:06.546Z,20
2018-06-11T03:34:06.319Z,25
2018-06-11T03:35:06.036Z,25
2018-06-11T03:36:06.044Z,25
2018-06-11T03:37:06.562Z,25
2018-06-11T03:38:06.825Z,25
2018-06-11T03:39:06.031Z,25
2018-06-11T03:40:06.347Z,30
2018-06-11T03:41:06.321Z,30
2018-06-11T03:42:06.334Z,30
2018-06-11T03:43:06.332Z,30
2018-06-11T03:44:06.575Z,35
2018-06-11T03:45:06.047Z,35
2018-06-11T03:46:06.354Z,40
2018-06-11T03:47:06.048Z,45
2018-06-11T03:48:06.064Z,45
2018-06-11T03:49:06.330Z,50
2018-06-11T03:50:06.325Z,50
2018-06-11T03:51:06.574Z,55
2018-06-11T03:52:06.332Z,65
2018-06-11T03:53:06.331Z,70
2018-06-11T03:54:06.378Z,75
2018-06-11T03:55:06.346Z,80
2018-06-11T03:56:06.076Z,80
2018-06-11T03:57:06.428Z,85
2018-06-11T03:58:05.829Z,85
2018-06-11T03:59:06.083Z,90
2018-06-11T04:00:06.341Z,95
2018-06-11T04:01:06.867Z,100
2018-06-11T04:02:06.103Z,105
2018-06-11T04:03:06.653Z,110
2018-06-11T04:04:06.092Z,115
2018-06-11T04:05:06.857Z,120
2018-06-11T04:06:06.639Z,130
2018-06-11T04:07:06.629Z,125
2018-06-11T04:08:06.367Z,125
2018-06-11T04:09:06.470Z,130
2018-06-11T04:10:06.633Z,130
2018-06-11T04:11:07.028Z,140
2018-06-11T04:12:06.909Z,140
2018-06-11T04:13:06.618Z,145
2018-06-11T04:14:06.147Z,155
2018-06-11T04:15:06.184Z,160
2018-06-11T04:16:06.391Z,160
2018-06-11T04:17:06.896Z,165
2018-06-11T04:18:06.622Z,170
2018-06-11T04:19:06.895Z,170
2018-06-11T04:20:06.911Z,170
2018-06-11T04:21:06.164Z,170
2018-06-11T04:22:06.392Z,175
2018-06-11T04:23:06.930Z,180
2018-06-11T04:24:06.651Z,190
2018-06-11T04:25:06.159Z,195
2018-06-11T04:26:06.404Z,200
2018-06-11T04:27:06.677Z,195
2018-06-11T04:28:06.154Z,195
2018-06-11T04:29:06.428Z,195
2018-06-11T04:30:06.953Z,200
2018-06-11T04:31:06.173Z,210
2018-06-11T04:32:06.474Z,210
2018-06-11T04:33:06.432Z,210
2018-06-11T04:34:06.192Z,215
2018-06-11T04:35:06.442Z,225
2018-06-11T04:36:06.726Z,220
2018-06-11T04:37:06.953Z,220
2018-06-11T04:38:06.719Z,225
2018-06-11T04:39:06.963Z,210
2018-06-11T04:40:06.819Z,215
2018-06-11T04:41:06.785Z,220
2018-06-11T04:42:06.723Z,225
2018-06-11T04:43:06.471Z,240
2018-06-11T04:44:06.472Z,240
2018-06-11T04:45:06.244Z,245
2018-06-11T04:46:06.217Z,230
2018-06-11T04:47:06.758Z,220
2018-06-11T04:48:06.264Z,255
2018-06-11T04:49:06.223Z,265
2018-06-11T04:50:06.767Z,270
2018-06-11T04:51:06.245Z,270
2018-06-11T04:52:06.265Z,275
2018-06-11T04:53:06.830Z,280
2018-06-11T04:54:06.522Z,280
2018-06-11T04:55:06.831Z,280
2018-06-11T04:56:06.309Z,280
2018-06-11T04:57:06.536Z,285
2018-06-11T04:58:06.539Z,285
2018-06-11T04:59:06.324Z,295
2018-06-11T05:00:06.684Z,295
2018-06-11T05:01:07.101Z,295
2018-06-11T05:02:06.553Z,295
2018-06-11T05:03:06.593Z,255
2018-06-11T05:04:06.828Z,300
2018-06-11T05:05:06.061Z,310
2018-06-11T05:06:06.850Z,305
2018-06-11T05:07:06.853Z,310
2018-06-11T05:08:07.261Z,315
2018-06-11T05:09:07.120Z,315
2018-06-11T05:10:06.740Z,320
2018-06-11T05:11:06.864Z,320
2018-06-11T05:12:06.892Z,320
2018-06-11T05:13:06.372Z,325
2018-06-11T05:14:06.647Z,325
2018-06-11T05:15:07.225Z,330
2018-06-11T05:16:06.390Z,295
2018-06-11T05:17:06.650Z,295
2018-06-11T05:18:06.666Z,325
2018-06-11T05:19:06.652Z,340
2018-06-11T05:20:06.700Z,340
2018-06-11T05:21:06.935Z,340
2018-06-11T05:22:06.928Z,325
2018-06-11T05:23:06.943Z,335
2018-06-11T05:24:07.240Z,340
2018-06-11T05:25:06.712Z,330
2018-06-11T05:26:07.240Z,335
2018-06-11T05:27:06.719Z,325
2018-06-11T05:28:06.958Z,335
2018-06-11T05:29:06.977Z,345
2018-06-11T05:30:07.011Z,345
2018-06-11T05:31:07.279Z,335
2018-06-11T05:32:06.726Z,340
2018-06-11T05:33:06.755Z,235
2018-06-11T05:34:07.280Z,240
2018-06-11T05:35:06.763Z,240
2018-06-11T05:36:07.030Z,240
2018-06-11T05:37:07.004Z,245
2018-06-11T05:38:07.185Z,250
2018-06-11T05:39:07.297Z,230
2018-06-11T05:40:07.066Z,235
2018-06-11T05:41:06.552Z,240
2018-06-11T05:42:07.052Z,240
2018-06-11T05:43:07.085Z,240
2018-06-11T05:44:06.288Z,240
2018-06-11T05:45:06.818Z,345
2018-06-11T05:46:06.812Z,350
2018-06-11T05:47:07.079Z,360
2018-06-11T05:48:06.928Z,340
2018-06-11T05:49:06.829Z,340
2018-06-11T05:50:07.101Z,340
2018-06-11T05:51:06.584Z,345
2018-06-11T05:52:06.870Z,340
2018-06-11T05:53:07.100Z,345
2018-06-11T05:54:06.602Z,350
2018-06-11T05:55:06.600Z,360
2018-06-11T05:56:06.372Z,360
2018-06-11T05:57:06.872Z,365
2018-06-11T05:58:06.674Z,360
2018-06-11T05:59:07.160Z,350
2018-06-11T06:00:07.432Z,350
2018-06-11T06:01:06.910Z,350
2018-06-11T06:02:06.916Z,360
2018-06-11T06:03:07.426Z,350
2018-06-11T06:04:07.181Z,360
2018-06-11T06:05:07.463Z,365
2018-06-11T06:06:06.937Z,370
2018-06-11T06:07:07.199Z,345
2018-06-11T06:08:06.932Z,320
2018-06-11T06:09:06.942Z,370
2018-06-11T06:10:07.224Z,380
2018-06-11T06:11:07.518Z,375
2018-06-11T06:12:07.224Z,375
2018-06-11T06:13:07.254Z,385
2018-06-11T06:14:06.991Z,360
2018-06-11T06:15:07.293Z,390
2018-06-11T06:16:07.272Z,385
2018-06-11T06:17:06.998Z,375
2018-06-11T06:18:07.245Z,420
2018-06-11T06:19:06.741Z,420
2018-06-11T06:20:07.283Z,390
2018-06-11T06:21:07.032Z,405
2018-06-11T06:22:06.548Z,375
2018-06-11T06:23:07.313Z,370
2018-06-11T06:24:07.326Z,370
2018-06-11T06:25:07.083Z,355
2018-06-11T06:26:07.060Z,380
2018-06-11T06:27:06.836Z,450
2018-06-11T06:28:07.600Z,420
2018-06-11T06:29:07.605Z,455
2018-06-11T06:30:07.085Z,375
2018-06-11T06:31:06.842Z,330
2018-06-11T06:32:07.112Z,295
2018-06-11T06:33:07.137Z,285
2018-06-11T06:34:07.169Z,255
2018-06-11T06:35:06.860Z,245
2018-06-11T06:36:07.405Z,230
2018-06-11T06:37:07.428Z,225
2018-06-11T06:38:06.884Z,225
2018-06-11T06:39:07.673Z,230
2018-06-11T06:40:07.196Z,235
2018-06-11T06:41:07.157Z,245
2018-06-11T06:42:07.188Z,260
2018-06-11T06:43:07.445Z,255
2018-06-11T06:44:07.219Z,250
2018-06-11T06:45:06.921Z,255
2018-06-11T06:46:07.190Z,260
2018-06-11T06:47:07.711Z,265
2018-06-11T06:48:07.198Z,270
2018-06-11T06:49:06.940Z,275
2018-06-11T06:50:07.480Z,290
2018-06-11T06:51:07.486Z,295
2018-06-11T06:52:07.757Z,280
2018-06-11T06:53:07.261Z,280
2018-06-11T06:54:07.758Z,305
2018-06-11T06:55:07.524Z,325
2018-06-11T06:56:07.240Z,330
2018-06-11T06:57:07.768Z,410
2018-06-11T06:58:07.241Z,365
2018-06-11T06:59:07.531Z,350
2018-06-11T07:00:07.331Z,340
2018-06-11T07:01:07.529Z,420
2018-06-11T07:02:07.267Z,415
2018-06-11T07:03:07.004Z,370
2018-06-11T07:04:07.325Z,330
2018-06-11T07:05:07.550Z,320
2018-06-11T07:06:07.038Z,320
2018-06-11T07:07:07.047Z,310
2018-06-11T07:08:07.966Z,310
2018-06-11T07:09:07.320Z,295
2018-06-11T07:10:07.309Z,280
2018-06-11T07:11:07.613Z,280
2018-06-11T07:12:07.070Z,275
2018-06-11T07:13:07.616Z,280
2018-06-11T07:14:07.620Z,275
2018-06-11T07:15:07.615Z,275
2018-06-11T07:16:07.620Z,275
2018-06-11T07:17:07.366Z,275
2018-06-11T07:18:07.634Z,275
2018-06-11T07:19:07.660Z,275
2018-06-11T07:20:07.155Z,275
2018-06-11T07:21:07.649Z,270
2018-06-11T07:22:07.387Z,265
2018-06-11T07:23:07.656Z,265
2018-06-11T07:24:07.668Z,260
2018-06-11T07:25:07.752Z,250
2018-06-11T07:26:07.678Z,245
2018-06-11T07:27:07.753Z,245
2018-06-11T07:28:07.689Z,240
2018-06-11T07:29:07.465Z,240
2018-06-11T07:30:07.477Z,240
2018-06-11T07:31:07.963Z,235
2018-06-11T07:32:07.968Z,235
2018-06-11T07:33:07.697Z,235
2018-06-11T07:34:07.987Z,235
2018-06-11T07:35:07.887Z,235
2018-06-11T07:36:07.523Z,240
2018-06-11T07:37:07.760Z,240
2018-06-11T07:38:07.534Z,250
2018-06-11T07:39:07.754Z,255
2018-06-11T07:40:07.498Z,265
2018-06-11T07:41:07.978Z,270
2018-06-11T07:42:07.783Z,270
2018-06-11T07:43:07.771Z,270
2018-06-11T07:44:07.794Z,275
2018-06-11T07:45:07.509Z,265
2018-06-11T07:46:07.542Z,265
2018-06-11T07:47:07.801Z,260
2018-06-11T07:48:07.987Z,255
2018-06-11T07:49:07.799Z,255
2018-06-11T07:50:08.312Z,255
2018-06-11T07:51:07.285Z,255
2018-06-11T07:52:07.816Z,255
2018-06-11T07:53:07.815Z,260
2018-06-11T07:54:07.844Z,260
2018-06-11T07:55:07.574Z,265
2018-06-11T07:56:07.825Z,270
2018-06-11T07:57:07.848Z,270
2018-06-11T07:58:07.599Z,275
2018-06-11T07:59:08.101Z,280
2018-06-11T08:00:07.694Z,285
2018-06-11T08:01:07.853Z,285
2018-06-11T08:02:07.623Z,285
2018-06-11T08:03:07.596Z,290
2018-06-11T08:04:07.863Z,290
2018-06-11T08:05:07.885Z,285
2018-06-11T08:06:07.892Z,290
2018-06-11T08:07:08.154Z,285
2018-06-11T08:08:07.891Z,290
2018-06-11T08:09:07.907Z,285
2018-06-11T08:10:08.379Z,290
2018-06-11T08:11:08.163Z,290
2018-06-11T08:12:07.649Z,290
2018-06-11T08:13:07.662Z,290
2018-06-11T08:14:07.937Z,290
2018-06-11T08:15:08.279Z,295
2018-06-11T08:16:07.685Z,300
2018-06-11T08:17:07.953Z,300
2018-06-11T08:18:07.970Z,300
2018-06-11T08:19:07.943Z,300
2018-06-11T08:20:07.435Z,300
2018-06-11T08:21:07.691Z,305
2018-06-11T08:22:08.236Z,300
2018-06-11T08:23:07.715Z,300
2018-06-11T08:24:07.973Z,295
2018-06-11T08:25:07.721Z,300
2018-06-11T08:26:07.978Z,305
2018-06-11T08:27:07.997Z,310
2018-06-11T08:28:08.014Z,320
2018-06-11T08:29:08.255Z,330
2018-06-11T08:30:07.495Z,335
2018-06-11T08:31:08.002Z,350
2018-06-11T08:32:07.514Z,355
2018-06-11T08:33:08.017Z,370
2018-06-11T08:34:08.017Z,375
2018-06-11T08:35:07.910Z,365
2018-06-11T08:36:07.496Z,370
2018-06-11T08:37:07.514Z,455
2018-06-11T08:38:07.806Z,530
2018-06-11T08:39:08.081Z,440
2018-06-11T08:40:08.356Z,425
2018-06-11T08:41:07.547Z,530
2018-06-11T08:42:08.323Z,535
2018-06-11T08:43:08.084Z,475
2018-06-11T08:44:08.100Z,430
2018-06-11T08:45:08.474Z,445
2018-06-11T08:46:08.165Z,450
2018-06-11T08:47:07.861Z,535
2018-06-11T08:48:07.624Z,435
2018-06-11T08:49:07.865Z,470
2018-06-11T08:50:08.599Z,460
2018-06-11T08:51:08.133Z,415
2018-06-11T08:52:07.616Z,420
2018-06-11T08:53:07.883Z,390
2018-06-11T08:54:07.890Z,380
2018-06-11T08:55:08.222Z,380
2018-06-11T08:56:07.935Z,380
2018-06-11T08:57:07.912Z,380
2018-06-11T08:58:08.188Z,390
2018-06-11T08:59:08.174Z,380
2018-06-11T09:00:08.497Z,385
2018-06-11T09:01:08.195Z,390
2018-06-11T09:02:07.681Z,400
2018-06-11T09:03:08.206Z,400
2018-06-11T09:04:08.246Z,400
2018-06-11T09:05:08.033Z,410
2018-06-11T09:06:07.972Z,410
2018-06-11T09:07:07.839Z,415
2018-06-11T09:08:07.723Z,415
2018-06-11T09:09:07.728Z,430
2018-06-11T09:10:08.016Z,420
2018-06-11T09:11:07.992Z,400
2018-06-11T09:12:08.261Z,390
2018-06-11T09:13:08.280Z,380
2018-06-11T09:14:08.293Z,385
2018-06-11T09:15:08.340Z,385
2018-06-11T09:16:08.042Z,390
2018-06-11T09:17:08.304Z,390
2018-06-11T09:18:08.660Z,380
2018-06-11T09:19:08.337Z,385
2018-06-11T09:20:08.105Z,385
2018-06-11T09:21:07.800Z,380
2018-06-11T09:22:08.336Z,370
2018-06-11T09:23:08.636Z,365
2018-06-11T09:24:08.362Z,360
2018-06-11T09:25:08.701Z,355
2018-06-11T09:26:08.373Z,350
2018-06-11T09:27:08.092Z,345
2018-06-11T09:28:08.386Z,340
2018-06-11T09:29:07.631Z,330
2018-06-11T09:30:09.752Z,315
2018-06-11T09:31:07.731Z,315
2018-06-11T09:32:08.412Z,300
2018-06-11T09:33:08.162Z,290
2018-06-11T09:34:08.416Z,280
2018-06-11T09:35:08.502Z,270
2018-06-11T09:36:08.191Z,255
2018-06-11T09:37:08.174Z,250
2018-06-11T09:38:08.295Z,230
2018-06-11T09:39:08.688Z,220
2018-06-11T09:40:08.542Z,215
2018-06-11T09:41:08.192Z,210
2018-06-11T09:42:08.195Z,210
2018-06-11T09:43:08.208Z,210
2018-06-11T09:44:09.322Z,215
2018-06-11T09:45:08.854Z,215
2018-06-11T09:46:08.268Z,220
2018-06-11T09:47:08.221Z,230
2018-06-11T09:48:08.257Z,240
2018-06-11T09:49:08.033Z,245
2018-06-11T09:50:08.466Z,255
2018-06-11T09:51:08.754Z,260
2018-06-11T09:52:08.025Z,270
2018-06-11T09:53:08.820Z,270
2018-06-11T09:54:08.277Z,270
2018-06-11T09:55:08.424Z,270
2018-06-11T09:56:08.021Z,270
2018-06-11T09:57:08.319Z,275
2018-06-11T09:58:08.292Z,280
2018-06-11T09:59:08.086Z,290
2018-06-11T10:00:09.515Z,295
2018-06-11T10:01:08.601Z,300
2018-06-11T10:02:08.085Z,300
2018-06-11T10:03:08.342Z,310
2018-06-11T10:04:08.596Z,310
2018-06-11T10:05:08.408Z,310
2018-06-11T10:06:08.604Z,305
2018-06-11T10:07:08.382Z,300
2018-06-11T10:08:08.469Z,300
2018-06-11T10:09:08.522Z,310
2018-06-11T10:10:08.813Z,330
2018-06-11T10:11:08.383Z,345
2018-06-11T10:12:08.650Z,365
2018-06-11T10:13:08.420Z,365
2018-06-11T10:14:08.402Z,380
2018-06-11T10:15:08.792Z,400
2018-06-11T10:16:08.413Z,405
2018-06-11T10:17:09.061Z,415
2018-06-11T10:18:08.402Z,445
2018-06-11T10:19:09.026Z,475
2018-06-11T10:20:08.708Z,465
2018-06-11T10:21:08.515Z,475
2018-06-11T10:22:08.721Z,480
2018-06-11T10:53:33.215Z,390
2018-06-11T10:54:33.481Z,390
2018-06-11T10:55:33.495Z,380
2018-06-11T10:56:33.534Z,380
2018-06-11T10:57:33.497Z,380
2018-06-11T10:58:33.736Z,370
2018-06-11T10:59:33.243Z,370
2018-06-11T11:00:33.751Z,390
2018-06-11T11:01:33.548Z,390
2018-06-11T11:02:33.490Z,380
2018-06-11T11:03:33.494Z,380
2018-06-11T11:04:33.592Z,380
2018-06-11T11:05:33.521Z,385
2018-06-11T11:06:33.856Z,390
2018-06-11T11:07:33.809Z,390
2018-06-11T11:08:33.800Z,380
2018-06-11T11:09:33.290Z,375
2018-06-11T11:10:33.817Z,375
2018-06-11T11:11:33.598Z,380
2018-06-11T11:12:33.585Z,380
2018-06-11T11:13:33.836Z,380
2018-06-11T11:14:33.676Z,380
2018-06-11T11:15:33.576Z,375
2018-06-11T11:16:33.913Z,370
2018-06-11T11:17:33.597Z,365
2018-06-11T11:18:33.869Z,355
2018-06-11T11:19:32.826Z,350
2018-06-11T11:20:33.376Z,340
2018-06-11T11:21:33.889Z,320
2018-06-11T11:22:33.896Z,315
2018-06-11T11:23:33.652Z,300
2018-06-11T11:24:33.912Z,300
2018-06-11T11:25:33.382Z,310
2018-06-11T11:26:33.752Z,305
2018-06-11T11:27:33.704Z,310
2018-06-11T11:28:34.248Z,310
2018-06-11T11:29:33.415Z,315
2018-06-11T11:30:33.413Z,320
2018-06-11T11:31:33.236Z,335
2018-06-11T11:32:33.697Z,350
2018-06-11T11:33:33.950Z,355
2018-06-11T11:34:33.437Z,370
2018-06-11T11:35:33.708Z,370
2018-06-11T11:36:33.513Z,365
2018-06-11T11:37:33.491Z,370
2018-06-11T11:38:33.219Z,370
2018-06-11T11:39:33.497Z,355
2018-06-11T11:40:34.005Z,360
2018-06-11T11:41:33.560Z,370
2018-06-11T11:42:33.747Z,370
2018-06-11T11:43:33.769Z,355
2018-06-11T11:44:34.030Z,355
2018-06-11T11:45:33.774Z,360
2018-06-11T11:46:33.777Z,360
2018-06-11T11:47:33.795Z,350
2018-06-11T11:48:33.276Z,350
2018-06-11T11:49:33.834Z,345
2018-06-11T11:50:33.567Z,345
2018-06-11T11:51:33.922Z,345
2018-06-11T11:52:33.565Z,340
2018-06-11T11:53:33.362Z,345
2018-06-11T11:54:33.845Z,350
2018-06-11T11:55:34.108Z,370
2018-06-11T11:56:33.590Z,380
2018-06-11T11:57:34.095Z,385
2018-06-11T11:58:34.139Z,370
2018-06-11T11:59:33.624Z,365
2018-06-11T12:00:34.143Z,365
2018-06-11T12:01:33.111Z,355
2018-06-11T12:02:34.177Z,350
2018-06-11T12:03:34.206Z,350
2018-06-11T12:04:33.916Z,350
2018-06-11T12:05:34.219Z,360
2018-06-11T12:06:33.942Z,365
2018-06-11T12:07:33.693Z,380
2018-06-11T12:08:34.247Z,390
2018-06-11T12:09:33.463Z,395
2018-06-11T12:10:34.231Z,405
2018-06-11T12:11:34.019Z,400
2018-06-11T12:12:33.966Z,395
2018-06-11T12:13:34.794Z,395
2018-06-11T12:14:33.984Z,390
2018-06-11T12:15:33.990Z,385
2018-06-11T12:16:33.789Z,385
2018-06-11T12:17:33.998Z,375
2018-06-11T12:18:34.060Z,375
2018-06-11T12:19:33.517Z,370
2018-06-11T12:20:34.309Z,370
2018-06-11T12:21:34.069Z,370
2018-06-11T12:22:34.034Z,380
2018-06-11T12:23:34.118Z,375
2018-06-11T12:24:33.529Z,375
2018-06-11T12:25:33.797Z,370
2018-06-11T12:26:34.453Z,365
2018-06-11T12:27:33.855Z,360
2018-06-11T12:28:33.828Z,350
2018-06-11T12:29:34.104Z,345
2018-06-11T12:30:33.842Z,335
2018-06-11T12:31:33.687Z,335
2018-06-11T12:32:34.122Z,335
2018-06-11T12:33:34.116Z,340
2018-06-11T12:34:33.914Z,350
2018-06-11T12:35:34.393Z,360
2018-06-11T12:36:34.434Z,390
2018-06-11T12:37:33.886Z,400
2018-06-11T12:38:33.688Z,415
2018-06-11T12:39:34.170Z,420
2018-06-11T12:40:33.897Z,430
2018-06-11T12:41:33.902Z,395
2018-06-11T12:42:33.911Z,385
2018-06-11T12:43:34.191Z,375
2018-06-11T12:44:33.926Z,375
2018-06-11T12:45:34.243Z,365
2018-06-11T12:46:34.036Z,355
2018-06-11T12:47:34.057Z,345
2018-06-11T12:48:34.030Z,340
2018-06-11T12:49:33.983Z,330
2018-06-11T12:50:33.964Z,320
2018-06-11T12:51:34.293Z,315
2018-06-11T12:52:33.729Z,310
2018-06-11T12:53:33.736Z,305
2018-06-11T12:54:34.275Z,320
2018-06-11T12:55:34.309Z,320
2018-06-11T12:56:34.640Z,320
2018-06-11T12:57:34.034Z,325
2018-06-11T12:58:34.318Z,330
2018-06-11T12:59:34.100Z,335
2018-06-11T13:00:34.321Z,335
2018-06-11T13:01:34.631Z,330
2018-06-11T13:02:34.343Z,330
2018-06-11T13:03:34.347Z,320
2018-06-11T13:04:34.351Z,320
2018-06-11T13:05:34.074Z,310
2018-06-11T13:06:34.081Z,305
2018-06-11T13:07:34.616Z,310
2018-06-11T13:08:33.842Z,305
2018-06-11T13:09:34.364Z,310
2018-06-11T13:10:34.406Z,310
2018-06-11T13:11:34.494Z,305
2018-06-11T13:12:34.398Z,305
2018-06-11T13:13:34.420Z,305
2018-06-11T13:14:34.142Z,305
2018-06-11T13:15:34.145Z,305
2018-06-11T13:16:34.740Z,305
2018-06-11T13:17:34.423Z,305
2018-06-11T13:18:34.169Z,305
2018-06-11T13:19:34.445Z,305
2018-06-11T13:20:34.428Z,305
2018-06-11T13:21:33.703Z,300
2018-06-11T13:22:33.923Z,300
2018-06-11T13:23:34.482Z,305
2018-06-11T13:24:34.240Z,310
2018-06-11T13:25:34.216Z,315
2018-06-11T13:26:34.785Z,320
2018-06-11T13:27:34.497Z,320
2018-06-11T13:28:34.242Z,320
2018-06-11T13:29:34.519Z,320
2018-06-11T13:30:34.611Z,320
2018-06-11T13:31:33.717Z,315
2018-06-11T13:32:34.261Z,315
2018-06-11T13:33:34.287Z,315
2018-06-11T13:34:34.293Z,320
2018-06-11T13:35:34.264Z,325
2018-06-11T13:36:34.653Z,335
2018-06-11T13:37:34.335Z,330
2018-06-11T13:38:35.347Z,325
2018-06-11T13:39:34.309Z,320
2018-06-11T13:40:34.299Z,325
2018-06-11T13:41:34.569Z,310
2018-06-11T13:42:34.585Z,300
2018-06-11T13:43:34.582Z,290
2018-06-11T13:44:34.100Z,285
2018-06-11T13:45:34.836Z,280
2018-06-11T13:46:34.593Z,275
2018-06-11T13:47:34.861Z,275
2018-06-11T13:48:34.633Z,265
2018-06-11T13:49:34.878Z,265
2018-06-11T13:50:34.619Z,265
2018-06-11T13:51:34.530Z,275
2018-06-11T13:52:34.389Z,275
2018-06-11T13:53:34.401Z,275
2018-06-11T13:54:34.401Z,275
2018-06-11T13:55:34.647Z,270
2018-06-11T13:56:34.691Z,270
2018-06-11T13:57:34.660Z,270
2018-06-11T13:58:34.665Z,270
2018-06-11T13:59:34.416Z,270
2018-06-11T14:00:34.691Z,275
2018-06-11T14:01:34.943Z,280
2018-06-11T14:02:34.456Z,280
2018-06-11T14:03:33.935Z,280
2018-06-11T14:04:34.480Z,280
2018-06-11T14:05:34.720Z,275
2018-06-11T14:06:34.530Z,275
2018-06-11T14:07:34.223Z,270
2018-06-11T14:08:35.007Z,270
2018-06-11T14:09:34.748Z,265
2018-06-11T14:10:34.219Z,260
2018-06-11T14:11:34.422Z,265
2018-06-11T14:12:35.005Z,265
2018-06-11T14:13:34.544Z,255
2018-06-11T14:14:34.771Z,260
2018-06-11T14:15:34.766Z,260
2018-06-11T14:16:34.289Z,265
2018-06-11T14:17:34.538Z,265
2018-06-11T14:18:34.536Z,285
2018-06-11T14:19:34.534Z,285
2018-06-11T14:20:34.788Z,290
2018-06-11T14:21:35.130Z,315
2018-06-11T14:22:34.552Z,305
2018-06-11T14:23:34.821Z,325
2018-06-11T14:24:34.815Z,325
2018-06-11T14:25:34.579Z,335
2018-06-11T14:26:34.842Z,345
2018-06-11T14:27:34.580Z,350
2018-06-11T14:28:34.699Z,345
2018-06-11T14:29:34.870Z,340
2018-06-11T14:30:34.593Z,340
2018-06-11T14:31:34.882Z,340